Fence Lake, New Mexico
Current Conditions -  °F | °C
As of 9:54 PM on Wednesday 22 Oct 2014 (Local Time) from KSJN Reporting Station
Clear Clear  
Wind Chill: 54°   Ceiling: Unl
Heat Index: 54°   Visibility: 10mi
Dew Point: 42°   Wind: 3mph
Humidity: 64%   Direction: 200°SSW
Pressure: 30.21"   Gusts: NA
Location:  34.65°N, 108.68°W
Report Text: KSJN 230354Z AUTO 20003KT 10SM CLR 12/06 A3021 RMK AO2 SLP173 T01220056
Loading
Personal Weather Stations






























Interactive Weather Map
Tropical Storm Tracking
New forecast layout! Learn more

10-Day Weather Forecast

Advertisements
Track Severe Weather on mobile